sensor_id;sensor_type;location;lat;lon;timestamp;temperature;humidity
21834;DHT22;11079;51.092;3.458;2023-06-04T00:00:11;15.20;99.90
21834;DHT22;11079;51.092;3.458;2023-06-04T00:02:37;15.10;99.90
21834;DHT22;11079;51.092;3.458;2023-06-04T00:05:03;15.10;99.90
21834;DHT22;11079;51.092;3.458;2023-06-04T00:07:31;15.10;99.90
21834;DHT22;11079;51.092;3.458;2023-06-04T00:09:57;15.10;99.90
21834;DHT22;11079;51.092;3.458;2023-06-04T00:12:22;14.90;99.90
21834;DHT22;11079;51.092;3.458;2023-06-04T00:14:48;14.90;99.90
21834;DHT22;11079;51.092;3.458;2023-06-04T00:17:13;14.90;99.90
21834;DHT22;11079;51.092;3.458;2023-06-04T00:19:39;14.90;99.90
21834;DHT22;11079;51.092;3.458;2023-06-04T00:22:09;14.80;99.90
21834;DHT22;11079;51.092;3.458;2023-06-04T00:24:36;14.80;99.90
21834;DHT22;11079;51.092;3.458;2023-06-04T00:27:02;14.80;99.90
21834;DHT22;11079;51.092;3.458;2023-06-04T00:29:34;14.80;99.90
21834;DHT22;11079;51.092;3.458;2023-06-04T00:32:02;14.70;99.90
21834;DHT22;11079;51.092;3.458;2023-06-04T00:34:29;14.70;99.90
21834;DHT22;11079;51.092;3.458;2023-06-04T00:36:54;14.60;99.90
21834;DHT22;11079;51.092;3.458;2023-06-04T00:39:20;14.50;99.90
21834;DHT22;11079;51.092;3.458;2023-06-04T00:41:46;14.50;99.90
21834;DHT22;11079;51.092;3.458;2023-06-04T00:44:22;14.50;99.90
21834;DHT22;11079;51.092;3.458;2023-06-04T00:46:52;14.50;99.90
21834;DHT22;11079;51.092;3.458;2023-06-04T00:49:19;14.60;99.90
21834;DHT22;11079;51.092;3.458;2023-06-04T00:51:46;14.50;99.90
21834;DHT22;11079;51.092;3.458;2023-06-04T00:54:12;14.40;99.90
21834;DHT22;11079;51.092;3.458;2023-06-04T00:56:38;14.30;99.90
21834;DHT22;11079;51.092;3.458;2023-06-04T00:59:08;14.40;99.90
21834;DHT22;11079;51.092;3.458;2023-06-04T01:01:49;14.40;99.90
21834;DHT22;11079;51.092;3.458;2023-06-04T01:07:00;14.40;99.90
21834;DHT22;11079;51.092;3.458;2023-06-04T01:09:28;14.40;99.90
21834;DHT22;11079;51.092;3.458;2023-06-04T01:11:54;14.50;99.90
21834;DHT22;11079;51.092;3.458;2023-06-04T01:14:23;14.50;99.90
21834;DHT22;11079;51.092;3.458;2023-06-04T01:16:52;14.40;99.90
21834;DHT22;11079;51.092;3.458;2023-06-04T01:24:56;14.40;99.90
21834;DHT22;11079;51.092;3.458;2023-06-04T01:27:24;14.30;99.90
21834;DHT22;11079;51.092;3.458;2023-06-04T01:29:50;14.20;99.90
21834;DHT22;11079;51.092;3.458;2023-06-04T01:32:17;14.10;99.90
21834;DHT22;11079;51.092;3.458;2023-06-04T01:34:46;14.10;99.90
21834;DHT22;11079;51.092;3.458;2023-06-04T01:37:12;14.30;99.90
21834;DHT22;11079;51.092;3.458;2023-06-04T01:39:38;14.20;99.90
21834;DHT22;11079;51.092;3.458;2023-06-04T01:42:04;14.30;99.90
21834;DHT22;11079;51.092;3.458;2023-06-04T01:44:31;14.30;99.90
21834;DHT22;11079;51.092;3.458;2023-06-04T01:46:57;14.20;99.90
21834;DHT22;11079;51.092;3.458;2023-06-04T01:49:22;14.30;99.90
21834;DHT22;11079;51.092;3.458;2023-06-04T01:51:48;14.10;99.90
21834;DHT22;11079;51.092;3.458;2023-06-04T01:54:13;14.10;99.90
21834;DHT22;11079;51.092;3.458;2023-06-04T01:56:40;14.10;99.90
21834;DHT22;11079;51.092;3.458;2023-06-04T01:59:05;14.10;99.90
21834;DHT22;11079;51.092;3.458;2023-06-04T02:01:31;14.10;99.90
21834;DHT22;11079;51.092;3.458;2023-06-04T02:03:56;14.00;99.90
21834;DHT22;11079;51.092;3.458;2023-06-04T02:06:22;14.10;99.90
21834;DHT22;11079;51.092;3.458;2023-06-04T02:08:50;14.10;99.90
21834;DHT22;11079;51.092;3.458;2023-06-04T02:11:15;14.10;99.90
21834;DHT22;11079;51.092;3.458;2023-06-04T02:13:46;14.10;99.90
21834;DHT22;11079;51.092;3.458;2023-06-04T02:16:12;14.10;99.90
21834;DHT22;11079;51.092;3.458;2023-06-04T02:18:40;14.10;99.90
21834;DHT22;11079;51.092;3.458;2023-06-04T02:21:06;14.10;99.90
21834;DHT22;11079;51.092;3.458;2023-06-04T02:23:32;14.10;99.90
21834;DHT22;11079;51.092;3.458;2023-06-04T02:25:57;14.00;99.90
21834;DHT22;11079;51.092;3.458;2023-06-04T02:28:23;13.80;99.90
21834;DHT22;11079;51.092;3.458;2023-06-04T02:30:50;13.80;99.90
21834;DHT22;11079;51.092;3.458;2023-06-04T02:33:15;13.70;99.90
21834;DHT22;11079;51.092;3.458;2023-06-04T02:35:41;13.70;99.90
21834;DHT22;11079;51.092;3.458;2023-06-04T02:38:09;13.70;99.90
21834;DHT22;11079;51.092;3.458;2023-06-04T02:40:34;13.80;99.90
21834;DHT22;11079;51.092;3.458;2023-06-04T02:43:00;13.90;99.90
21834;DHT22;11079;51.092;3.458;2023-06-04T02:45:26;13.80;99.90
21834;DHT22;11079;51.092;3.458;2023-06-04T02:47:54;13.90;99.90
21834;DHT22;11079;51.092;3.458;2023-06-04T02:50:19;13.70;99.90
21834;DHT22;11079;51.092;3.458;2023-06-04T02:52:46;13.70;99.90
21834;DHT22;11079;51.092;3.458;2023-06-04T02:55:12;13.80;99.90
21834;DHT22;11079;51.092;3.458;2023-06-04T02:57:41;13.90;99.90
21834;DHT22;11079;51.092;3.458;2023-06-04T03:00:12;13.90;99.90
21834;DHT22;11079;51.092;3.458;2023-06-04T03:02:47;13.90;99.90
21834;DHT22;11079;51.092;3.458;2023-06-04T03:05:17;13.70;99.90
21834;DHT22;11079;51.092;3.458;2023-06-04T03:07:45;13.60;99.90
21834;DHT22;11079;51.092;3.458;2023-06-04T03:10:12;13.70;99.90
21834;DHT22;11079;51.092;3.458;2023-06-04T03:12:40;13.70;99.90
21834;DHT22;11079;51.092;3.458;2023-06-04T03:15:06;13.70;99.90
21834;DHT22;11079;51.092;3.458;2023-06-04T03:17:32;13.60;99.90
21834;DHT22;11079;51.092;3.458;2023-06-04T03:20:06;13.60;99.90
21834;DHT22;11079;51.092;3.458;2023-06-04T03:22:34;13.50;99.90
21834;DHT22;11079;51.092;3.458;2023-06-04T03:25:02;13.50;99.90
21834;DHT22;11079;51.092;3.458;2023-06-04T03:27:29;13.50;99.90
21834;DHT22;11079;51.092;3.458;2023-06-04T03:29:55;13.50;99.90
21834;DHT22;11079;51.092;3.458;2023-06-04T03:32:21;13.50;99.90
21834;DHT22;11079;51.092;3.458;2023-06-04T03:34:46;13.50;99.90
21834;DHT22;11079;51.092;3.458;2023-06-04T03:37:12;13.50;99.90
21834;DHT22;11079;51.092;3.458;2023-06-04T03:39:38;13.50;99.90
21834;DHT22;11079;51.092;3.458;2023-06-04T03:42:04;13.50;99.90
21834;DHT22;11079;51.092;3.458;2023-06-04T03:44:30;13.40;99.90
21834;DHT22;11079;51.092;3.458;2023-06-04T03:47:00;13.50;99.90
21834;DHT22;11079;51.092;3.458;2023-06-04T03:49:26;13.50;99.90
21834;DHT22;11079;51.092;3.458;2023-06-04T03:51:51;13.40;99.90
21834;DHT22;11079;51.092;3.458;2023-06-04T03:54:18;13.40;99.90
21834;DHT22;11079;51.092;3.458;2023-06-04T03:56:45;13.30;99.90
21834;DHT22;11079;51.092;3.458;2023-06-04T03:59:11;13.40;99.90
21834;DHT22;11079;51.092;3.458;2023-06-04T04:01:42;13.40;99.90
21834;DHT22;11079;51.092;3.458;2023-06-04T04:04:08;13.50;99.90
21834;DHT22;11079;51.092;3.458;2023-06-04T04:06:35;13.50;99.90
21834;DHT22;11079;51.092;3.458;2023-06-04T04:09:02;13.50;99.90
21834;DHT22;11079;51.092;3.458;2023-06-04T04:11:29;13.60;99.90
21834;DHT22;11079;51.092;3.458;2023-06-04T04:13:56;13.40;99.90
21834;DHT22;11079;51.092;3.458;2023-06-04T04:16:23;13.50;99.90
21834;DHT22;11079;51.092;3.458;2023-06-04T04:18:50;13.60;99.90
21834;DHT22;11079;51.092;3.458;2023-06-04T04:21:15;13.70;99.90
21834;DHT22;11079;51.092;3.458;2023-06-04T04:23:42;13.90;99.90
21834;DHT22;11079;51.092;3.458;2023-06-04T04:26:08;14.00;99.90
21834;DHT22;11079;51.092;3.458;2023-06-04T04:28:33;14.00;99.90
21834;DHT22;11079;51.092;3.458;2023-06-04T04:31:00;13.90;99.90
21834;DHT22;11079;51.092;3.458;2023-06-04T04:33:30;13.90;99.90
21834;DHT22;11079;51.092;3.458;2023-06-04T04:36:01;13.90;99.90
21834;DHT22;11079;51.092;3.458;2023-06-04T04:38:26;13.90;99.90
21834;DHT22;11079;51.092;3.458;2023-06-04T04:40:55;14.00;99.90
21834;DHT22;11079;51.092;3.458;2023-06-04T04:43:31;14.10;99.90
21834;DHT22;11079;51.092;3.458;2023-06-04T04:46:00;14.10;99.90
21834;DHT22;11079;51.092;3.458;2023-06-04T04:48:26;14.40;99.90
21834;DHT22;11079;51.092;3.458;2023-06-04T04:50:52;15.00;99.90
21834;DHT22;11079;51.092;3.458;2023-06-04T04:53:19;15.50;99.90
21834;DHT22;11079;51.092;3.458;2023-06-04T04:55:46;16.20;99.90
21834;DHT22;11079;51.092;3.458;2023-06-04T04:58:12;16.70;99.90
21834;DHT22;11079;51.092;3.458;2023-06-04T05:00:38;16.90;99.90
21834;DHT22;11079;51.092;3.458;2023-06-04T05:03:05;17.50;99.90
21834;DHT22;11079;51.092;3.458;2023-06-04T05:05:32;17.70;99.90
21834;DHT22;11079;51.092;3.458;2023-06-04T05:07:58;18.00;99.90
21834;DHT22;11079;51.092;3.458;2023-06-04T05:10:24;18.40;99.90
21834;DHT22;11079;51.092;3.458;2023-06-04T05:12:59;18.80;99.90
21834;DHT22;11079;51.092;3.458;2023-06-04T05:15:26;18.80;99.90
21834;DHT22;11079;51.092;3.458;2023-06-04T05:17:55;19.10;99.90
21834;DHT22;11079;51.092;3.458;2023-06-04T05:20:22;19.30;99.90
21834;DHT22;11079;51.092;3.458;2023-06-04T05:22:48;19.60;99.90
21834;DHT22;11079;51.092;3.458;2023-06-04T05:25:14;20.00;99.90
21834;DHT22;11079;51.092;3.458;2023-06-04T05:27:40;20.40;99.90
21834;DHT22;11079;51.092;3.458;2023-06-04T05:30:07;20.60;99.90
21834;DHT22;11079;51.092;3.458;2023-06-04T05:32:32;21.00;99.90
21834;DHT22;11079;51.092;3.458;2023-06-04T05:34:59;20.90;99.90
21834;DHT22;11079;51.092;3.458;2023-06-04T05:37:26;21.20;99.90
21834;DHT22;11079;51.092;3.458;2023-06-04T05:39:55;21.90;99.90
21834;DHT22;11079;51.092;3.458;2023-06-04T05:42:23;22.30;99.90
21834;DHT22;11079;51.092;3.458;2023-06-04T05:44:49;22.20;99.90
21834;DHT22;11079;51.092;3.458;2023-06-04T05:47:16;22.40;99.90
21834;DHT22;11079;51.092;3.458;2023-06-04T05:49:44;22.30;99.90
21834;DHT22;11079;51.092;3.458;2023-06-04T05:52:11;22.00;99.90
21834;DHT22;11079;51.092;3.458;2023-06-04T05:54:37;22.30;99.90
21834;DHT22;11079;51.092;3.458;2023-06-04T05:57:03;22.40;99.90
21834;DHT22;11079;51.092;3.458;2023-06-04T05:59:31;23.20;99.90
21834;DHT22;11079;51.092;3.458;2023-06-04T06:01:57;23.20;99.90
21834;DHT22;11079;51.092;3.458;2023-06-04T06:04:23;22.90;99.90
21834;DHT22;11079;51.092;3.458;2023-06-04T06:06:50;23.00;99.90
21834;DHT22;11079;51.092;3.458;2023-06-04T06:09:16;23.30;99.90
21834;DHT22;11079;51.092;3.458;2023-06-04T06:11:42;23.50;99.90
21834;DHT22;11079;51.092;3.458;2023-06-04T06:14:17;23.60;99.90
21834;DHT22;11079;51.092;3.458;2023-06-04T06:16:45;23.60;99.90
21834;DHT22;11079;51.092;3.458;2023-06-04T06:19:10;23.60;99.90
21834;DHT22;11079;51.092;3.458;2023-06-04T06:21:36;23.50;99.90
21834;DHT22;11079;51.092;3.458;2023-06-04T06:24:03;23.80;99.90
21834;DHT22;11079;51.092;3.458;2023-06-04T06:26:30;23.90;99.90
21834;DHT22;11079;51.092;3.458;2023-06-04T06:28:56;24.20;99.90
21834;DHT22;11079;51.092;3.458;2023-06-04T06:31:24;24.70;99.90
21834;DHT22;11079;51.092;3.458;2023-06-04T06:33:51;25.20;99.90
21834;DHT22;11079;51.092;3.458;2023-06-04T06:36:17;25.40;99.90
21834;DHT22;11079;51.092;3.458;2023-06-04T06:38:45;26.20;99.90
21834;DHT22;11079;51.092;3.458;2023-06-04T06:41:11;26.10;99.90
21834;DHT22;11079;51.092;3.458;2023-06-04T06:43:37;25.80;99.90
21834;DHT22;11079;51.092;3.458;2023-06-04T06:46:03;25.70;99.90
21834;DHT22;11079;51.092;3.458;2023-06-04T06:48:32;26.10;99.90
21834;DHT22;11079;51.092;3.458;2023-06-04T06:50:57;27.10;99.90
21834;DHT22;11079;51.092;3.458;2023-06-04T06:53:23;27.60;99.90
21834;DHT22;11079;51.092;3.458;2023-06-04T06:55:48;28.00;99.90
21834;DHT22;11079;51.092;3.458;2023-06-04T06:58:14;28.10;99.90
21834;DHT22;11079;51.092;3.458;2023-06-04T07:00:41;28.30;99.90
21834;DHT22;11079;51.092;3.458;2023-06-04T07:03:07;28.20;99.70
21834;DHT22;11079;51.092;3.458;2023-06-04T07:05:33;28.50;97.40
21834;DHT22;11079;51.092;3.458;2023-06-04T07:07:59;28.40;95.90
21834;DHT22;11079;51.092;3.458;2023-06-04T07:10:27;28.90;95.80
21834;DHT22;11079;51.092;3.458;2023-06-04T07:12:52;28.10;95.80
21834;DHT22;11079;51.092;3.458;2023-06-04T07:15:18;28.40;95.80
21834;DHT22;11079;51.092;3.458;2023-06-04T07:17:44;28.90;95.10
21834;DHT22;11079;51.092;3.458;2023-06-04T07:20:10;29.40;93.70
21834;DHT22;11079;51.092;3.458;2023-06-04T07:22:35;28.90;92.90
21834;DHT22;11079;51.092;3.458;2023-06-04T07:25:01;29.10;93.50
21834;DHT22;11079;51.092;3.458;2023-06-04T07:27:27;29.60;92.70
21834;DHT22;11079;51.092;3.458;2023-06-04T07:29:53;30.20;92.80
21834;DHT22;11079;51.092;3.458;2023-06-04T07:32:19;30.70;87.60
21834;DHT22;11079;51.092;3.458;2023-06-04T07:34:45;30.80;90.40
21834;DHT22;11079;51.092;3.458;2023-06-04T07:37:10;31.60;86.40
21834;DHT22;11079;51.092;3.458;2023-06-04T07:39:38;31.60;85.00
21834;DHT22;11079;51.092;3.458;2023-06-04T07:42:05;30.80;84.50
21834;DHT22;11079;51.092;3.458;2023-06-04T07:44:32;30.40;82.80
21834;DHT22;11079;51.092;3.458;2023-06-04T07:46:58;30.60;84.00
21834;DHT22;11079;51.092;3.458;2023-06-04T07:49:25;31.00;82.20
21834;DHT22;11079;51.092;3.458;2023-06-04T07:51:50;31.00;82.20
21834;DHT22;11079;51.092;3.458;2023-06-04T07:54:16;31.50;81.30
21834;DHT22;11079;51.092;3.458;2023-06-04T07:56:42;32.10;79.70
21834;DHT22;11079;51.092;3.458;2023-06-04T07:59:07;32.20;77.40
21834;DHT22;11079;51.092;3.458;2023-06-04T08:01:33;32.30;76.30
21834;DHT22;11079;51.092;3.458;2023-06-04T08:03:58;32.70;74.90
21834;DHT22;11079;51.092;3.458;2023-06-04T08:06:25;32.10;73.40
21834;DHT22;11079;51.092;3.458;2023-06-04T08:08:52;31.80;74.20
21834;DHT22;11079;51.092;3.458;2023-06-04T08:11:18;32.60;75.30
21834;DHT22;11079;51.092;3.458;2023-06-04T08:13:43;32.30;70.90
21834;DHT22;11079;51.092;3.458;2023-06-04T08:16:09;32.90;71.90
21834;DHT22;11079;51.092;3.458;2023-06-04T08:18:41;32.40;71.80
21834;DHT22;11079;51.092;3.458;2023-06-04T08:21:10;31.70;69.80
21834;DHT22;11079;51.092;3.458;2023-06-04T08:23:36;31.70;69.50
21834;DHT22;11079;51.092;3.458;2023-06-04T08:26:02;31.80;70.50
21834;DHT22;11079;51.092;3.458;2023-06-04T08:28:27;32.70;70.70
21834;DHT22;11079;51.092;3.458;2023-06-04T08:30:53;33.40;70.80
21834;DHT22;11079;51.092;3.458;2023-06-04T08:33:19;32.60;69.90
21834;DHT22;11079;51.092;3.458;2023-06-04T08:35:44;33.40;69.50
21834;DHT22;11079;51.092;3.458;2023-06-04T08:38:10;33.40;65.80
21834;DHT22;11079;51.092;3.458;2023-06-04T08:40:35;33.70;65.70
21834;DHT22;11079;51.092;3.458;2023-06-04T08:43:01;33.20;64.90
21834;DHT22;11079;51.092;3.458;2023-06-04T08:45:27;33.90;66.80
21834;DHT22;11079;51.092;3.458;2023-06-04T08:47:53;34.50;65.70
21834;DHT22;11079;51.092;3.458;2023-06-04T08:50:24;35.20;64.30
21834;DHT22;11079;51.092;3.458;2023-06-04T08:52:54;34.80;63.10
21834;DHT22;11079;51.092;3.458;2023-06-04T08:55:21;34.70;61.20
21834;DHT22;11079;51.092;3.458;2023-06-04T08:57:49;35.30;61.10
21834;DHT22;11079;51.092;3.458;2023-06-04T09:00:15;34.70;59.00
21834;DHT22;11079;51.092;3.458;2023-06-04T09:02:42;34.60;60.50
21834;DHT22;11079;51.092;3.458;2023-06-04T09:05:08;34.90;62.90
21834;DHT22;11079;51.092;3.458;2023-06-04T09:07:36;34.90;60.00
21834;DHT22;11079;51.092;3.458;2023-06-04T09:10:24;35.10;59.70
21834;DHT22;11079;51.092;3.458;2023-06-04T09:12:51;34.90;57.00
21834;DHT22;11079;51.092;3.458;2023-06-04T09:15:17;32.90;57.20
21834;DHT22;11079;51.092;3.458;2023-06-04T09:17:43;32.70;58.50
21834;DHT22;11079;51.092;3.458;2023-06-04T09:20:19;32.90;58.60
21834;DHT22;11079;51.092;3.458;2023-06-04T09:22:45;33.10;58.00
21834;DHT22;11079;51.092;3.458;2023-06-04T09:25:20;34.10;58.30
21834;DHT22;11079;51.092;3.458;2023-06-04T09:27:46;34.20;56.70
21834;DHT22;11079;51.092;3.458;2023-06-04T09:30:11;33.60;57.90
21834;DHT22;11079;51.092;3.458;2023-06-04T09:32:37;33.10;56.40
21834;DHT22;11079;51.092;3.458;2023-06-04T09:37:39;34.00;56.60
21834;DHT22;11079;51.092;3.458;2023-06-04T09:40:06;34.40;59.20
21834;DHT22;11079;51.092;3.458;2023-06-04T09:42:48;35.50;58.00
21834;DHT22;11079;51.092;3.458;2023-06-04T09:45:33;34.60;55.50
21834;DHT22;11079;51.092;3.458;2023-06-04T09:48:00;34.40;54.00
21834;DHT22;11079;51.092;3.458;2023-06-04T09:50:33;34.20;52.40
21834;DHT22;11079;51.092;3.458;2023-06-04T09:52:59;33.90;54.20
21834;DHT22;11079;51.092;3.458;2023-06-04T09:55:25;33.90;54.30
21834;DHT22;11079;51.092;3.458;2023-06-04T09:57:52;33.30;56.50
21834;DHT22;11079;51.092;3.458;2023-06-04T10:00:20;34.20;57.80
21834;DHT22;11079;51.092;3.458;2023-06-04T10:02:53;33.70;56.10
21834;DHT22;11079;51.092;3.458;2023-06-04T10:05:21;33.10;54.90
21834;DHT22;11079;51.092;3.458;2023-06-04T10:07:50;33.50;55.90
21834;DHT22;11079;51.092;3.458;2023-06-04T10:10:19;34.50;57.40
21834;DHT22;11079;51.092;3.458;2023-06-04T10:12:54;34.90;53.80
21834;DHT22;11079;51.092;3.458;2023-06-04T10:15:25;34.60;53.70
21834;DHT22;11079;51.092;3.458;2023-06-04T10:17:51;34.10;54.10
21834;DHT22;11079;51.092;3.458;2023-06-04T10:20:18;33.70;55.00
21834;DHT22;11079;51.092;3.458;2023-06-04T10:22:46;33.90;55.20
21834;DHT22;11079;51.092;3.458;2023-06-04T10:25:14;33.70;53.00
21834;DHT22;11079;51.092;3.458;2023-06-04T10:27:40;33.50;54.80
21834;DHT22;11079;51.092;3.458;2023-06-04T10:30:07;33.30;54.30
21834;DHT22;11079;51.092;3.458;2023-06-04T10:32:33;33.20;55.70
21834;DHT22;11079;51.092;3.458;2023-06-04T10:35:04;33.20;53.10
21834;DHT22;11079;51.092;3.458;2023-06-04T10:37:30;33.10;55.80
21834;DHT22;11079;51.092;3.458;2023-06-04T10:39:56;34.10;55.00
21834;DHT22;11079;51.092;3.458;2023-06-04T10:42:25;34.20;54.80
21834;DHT22;11079;51.092;3.458;2023-06-04T10:44:52;34.30;53.70
21834;DHT22;11079;51.092;3.458;2023-06-04T10:47:26;34.80;52.60
21834;DHT22;11079;51.092;3.458;2023-06-04T10:49:53;35.00;53.70
21834;DHT22;11079;51.092;3.458;2023-06-04T10:52:19;34.90;52.50
21834;DHT22;11079;51.092;3.458;2023-06-04T10:54:46;34.50;52.10
21834;DHT22;11079;51.092;3.458;2023-06-04T10:57:18;34.40;52.20
21834;DHT22;11079;51.092;3.458;2023-06-04T10:59:57;33.40;53.50
21834;DHT22;11079;51.092;3.458;2023-06-04T11:02:23;33.20;54.30
21834;DHT22;11079;51.092;3.458;2023-06-04T11:05:03;33.40;53.60
21834;DHT22;11079;51.092;3.458;2023-06-04T11:07:41;33.60;53.60
21834;DHT22;11079;51.092;3.458;2023-06-04T11:10:10;34.50;54.40
21834;DHT22;11079;51.092;3.458;2023-06-04T11:12:46;34.50;53.70
21834;DHT22;11079;51.092;3.458;2023-06-04T11:15:13;34.80;54.30
21834;DHT22;11079;51.092;3.458;2023-06-04T11:17:49;34.70;53.40
21834;DHT22;11079;51.092;3.458;2023-06-04T11:20:18;34.40;54.60
21834;DHT22;11079;51.092;3.458;2023-06-04T11:25:17;35.10;54.30
21834;DHT22;11079;51.092;3.458;2023-06-04T11:27:43;34.40;54.20
21834;DHT22;11079;51.092;3.458;2023-06-04T11:30:09;34.00;53.00
21834;DHT22;11079;51.092;3.458;2023-06-04T11:32:37;34.50;53.60
21834;DHT22;11079;51.092;3.458;2023-06-04T11:35:06;34.10;53.90
21834;DHT22;11079;51.092;3.458;2023-06-04T11:37:33;34.80;55.00
21834;DHT22;11079;51.092;3.458;2023-06-04T11:39:59;35.20;53.80
21834;DHT22;11079;51.092;3.458;2023-06-04T11:42:29;35.20;53.60
21834;DHT22;11079;51.092;3.458;2023-06-04T11:44:58;35.30;53.00
21834;DHT22;11079;51.092;3.458;2023-06-04T11:47:25;35.00;52.00
21834;DHT22;11079;51.092;3.458;2023-06-04T11:49:57;34.90;53.50
21834;DHT22;11079;51.092;3.458;2023-06-04T11:52:23;34.70;53.40
21834;DHT22;11079;51.092;3.458;2023-06-04T11:54:49;34.60;52.90
21834;DHT22;11079;51.092;3.458;2023-06-04T11:57:15;34.60;53.20
21834;DHT22;11079;51.092;3.458;2023-06-04T11:59:41;34.10;53.70
21834;DHT22;11079;51.092;3.458;2023-06-04T12:02:07;34.00;54.10
21834;DHT22;11079;51.092;3.458;2023-06-04T12:04:33;33.90;53.60
21834;DHT22;11079;51.092;3.458;2023-06-04T12:07:01;34.90;54.50
21834;DHT22;11079;51.092;3.458;2023-06-04T12:09:33;35.70;53.50
21834;DHT22;11079;51.092;3.458;2023-06-04T12:12:07;35.30;52.40
21834;DHT22;11079;51.092;3.458;2023-06-04T12:14:33;35.10;52.50
21834;DHT22;11079;51.092;3.458;2023-06-04T12:17:09;34.60;53.30
21834;DHT22;11079;51.092;3.458;2023-06-04T12:19:46;34.00;52.60
21834;DHT22;11079;51.092;3.458;2023-06-04T12:22:13;33.40;53.00
21834;DHT22;11079;51.092;3.458;2023-06-04T12:24:53;34.10;52.10
21834;DHT22;11079;51.092;3.458;2023-06-04T12:27:21;34.30;51.50
21834;DHT22;11079;51.092;3.458;2023-06-04T12:30:00;34.50;52.30
21834;DHT22;11079;51.092;3.458;2023-06-04T12:32:27;35.40;52.60
21834;DHT22;11079;51.092;3.458;2023-06-04T12:34:53;35.00;51.50
21834;DHT22;11079;51.092;3.458;2023-06-04T12:37:21;33.40;51.60
21834;DHT22;11079;51.092;3.458;2023-06-04T12:39:47;33.30;54.60
21834;DHT22;11079;51.092;3.458;2023-06-04T12:42:13;33.90;53.50
21834;DHT22;11079;51.092;3.458;2023-06-04T12:44:40;33.90;51.80
21834;DHT22;11079;51.092;3.458;2023-06-04T12:47:06;33.90;53.70
21834;DHT22;11079;51.092;3.458;2023-06-04T12:49:32;33.90;52.50
21834;DHT22;11079;51.092;3.458;2023-06-04T12:51:58;34.50;53.30
21834;DHT22;11079;51.092;3.458;2023-06-04T12:54:24;34.60;52.30
21834;DHT22;11079;51.092;3.458;2023-06-04T12:56:50;35.00;52.20
21834;DHT22;11079;51.092;3.458;2023-06-04T12:59:16;35.30;52.00
21834;DHT22;11079;51.092;3.458;2023-06-04T13:01:42;35.90;51.10
21834;DHT22;11079;51.092;3.458;2023-06-04T13:04:08;34.30;50.90
21834;DHT22;11079;51.092;3.458;2023-06-04T13:06:36;34.30;51.80
21834;DHT22;11079;51.092;3.458;2023-06-04T13:09:03;34.90;52.10
21834;DHT22;11079;51.092;3.458;2023-06-04T13:11:37;35.00;50.10
21834;DHT22;11079;51.092;3.458;2023-06-04T13:14:03;33.60;51.80
21834;DHT22;11079;51.092;3.458;2023-06-04T13:16:29;33.60;52.50
21834;DHT22;11079;51.092;3.458;2023-06-04T13:18:54;33.70;52.50
21834;DHT22;11079;51.092;3.458;2023-06-04T13:21:20;33.60;52.60
21834;DHT22;11079;51.092;3.458;2023-06-04T13:23:46;33.80;52.10
21834;DHT22;11079;51.092;3.458;2023-06-04T13:26:11;33.30;51.60
21834;DHT22;11079;51.092;3.458;2023-06-04T13:28:38;32.10;52.50
21834;DHT22;11079;51.092;3.458;2023-06-04T13:31:03;32.20;53.20
21834;DHT22;11079;51.092;3.458;2023-06-04T13:33:29;32.50;54.00
21834;DHT22;11079;51.092;3.458;2023-06-04T13:35:55;32.80;53.10
21834;DHT22;11079;51.092;3.458;2023-06-04T13:38:20;32.20;53.40
21834;DHT22;11079;51.092;3.458;2023-06-04T13:40:46;32.10;53.90
21834;DHT22;11079;51.092;3.458;2023-06-04T13:43:12;32.70;54.40
21834;DHT22;11079;51.092;3.458;2023-06-04T13:45:37;33.40;53.50
21834;DHT22;11079;51.092;3.458;2023-06-04T13:48:05;33.20;52.10
21834;DHT22;11079;51.092;3.458;2023-06-04T13:50:33;32.40;53.10
21834;DHT22;11079;51.092;3.458;2023-06-04T13:52:59;32.50;53.40
21834;DHT22;11079;51.092;3.458;2023-06-04T13:55:25;31.50;53.90
21834;DHT22;11079;51.092;3.458;2023-06-04T13:57:50;31.10;55.90
21834;DHT22;11079;51.092;3.458;2023-06-04T14:00:16;30.70;55.00
21834;DHT22;11079;51.092;3.458;2023-06-04T14:02:42;30.10;56.60
21834;DHT22;11079;51.092;3.458;2023-06-04T14:05:07;29.50;56.50
21834;DHT22;11079;51.092;3.458;2023-06-04T14:07:33;28.90;57.00
21834;DHT22;11079;51.092;3.458;2023-06-04T14:09:59;28.20;58.20
21834;DHT22;11079;51.092;3.458;2023-06-04T14:12:25;27.90;58.50
21834;DHT22;11079;51.092;3.458;2023-06-04T14:14:51;27.70;58.20
21834;DHT22;11079;51.092;3.458;2023-06-04T14:17:17;27.50;59.50
21834;DHT22;11079;51.092;3.458;2023-06-04T14:19:43;27.60;60.80
21834;DHT22;11079;51.092;3.458;2023-06-04T14:22:10;27.60;67.80
21834;DHT22;11079;51.092;3.458;2023-06-04T14:24:36;27.40;69.10
21834;DHT22;11079;51.092;3.458;2023-06-04T14:27:02;27.10;71.50
21834;DHT22;11079;51.092;3.458;2023-06-04T14:29:28;26.60;73.30
21834;DHT22;11079;51.092;3.458;2023-06-04T14:31:53;26.20;76.60
21834;DHT22;11079;51.092;3.458;2023-06-04T14:34:19;25.90;77.30
21834;DHT22;11079;51.092;3.458;2023-06-04T14:36:46;25.80;79.30
21834;DHT22;11079;51.092;3.458;2023-06-04T14:39:12;25.80;81.70
21834;DHT22;11079;51.092;3.458;2023-06-04T14:41:37;25.70;81.50
21834;DHT22;11079;51.092;3.458;2023-06-04T14:44:03;25.30;85.10
21834;DHT22;11079;51.092;3.458;2023-06-04T14:46:28;25.40;88.70
21834;DHT22;11079;51.092;3.458;2023-06-04T14:48:54;25.50;88.70
21834;DHT22;11079;51.092;3.458;2023-06-04T14:51:20;25.70;88.20
21834;DHT22;11079;51.092;3.458;2023-06-04T14:53:47;25.70;88.20
21834;DHT22;11079;51.092;3.458;2023-06-04T14:56:13;25.60;89.00
21834;DHT22;11079;51.092;3.458;2023-06-04T14:58:39;25.50;89.90
21834;DHT22;11079;51.092;3.458;2023-06-04T15:01:05;25.30;90.30
21834;DHT22;11079;51.092;3.458;2023-06-04T15:03:31;25.10;90.30
21834;DHT22;11079;51.092;3.458;2023-06-04T15:05:57;25.10;91.40
21834;DHT22;11079;51.092;3.458;2023-06-04T15:08:22;25.00;91.10
21834;DHT22;11079;51.092;3.458;2023-06-04T15:10:48;24.80;91.90
21834;DHT22;11079;51.092;3.458;2023-06-04T15:13:14;24.80;93.50
21834;DHT22;11079;51.092;3.458;2023-06-04T15:15:40;24.90;92.00
21834;DHT22;11079;51.092;3.458;2023-06-04T15:18:05;24.80;91.70
21834;DHT22;11079;51.092;3.458;2023-06-04T15:20:32;24.60;91.30
21834;DHT22;11079;51.092;3.458;2023-06-04T15:22:58;24.60;92.00
21834;DHT22;11079;51.092;3.458;2023-06-04T15:25:23;24.40;93.80
21834;DHT22;11079;51.092;3.458;2023-06-04T15:27:49;24.30;93.40
21834;DHT22;11079;51.092;3.458;2023-06-04T15:30:15;24.20;93.90
21834;DHT22;11079;51.092;3.458;2023-06-04T15:32:42;24.10;96.40
21834;DHT22;11079;51.092;3.458;2023-06-04T15:35:09;24.10;97.00
21834;DHT22;11079;51.092;3.458;2023-06-04T15:37:35;23.90;98.10
21834;DHT22;11079;51.092;3.458;2023-06-04T15:40:01;24.10;98.50
21834;DHT22;11079;51.092;3.458;2023-06-04T15:42:28;24.10;99.20